Time,TemperatureF,DewpointF,PressureIn,WindDirection,WindDirectionDegrees,WindSpeedMPH,WindSpeedGustMPH,Humidity,HourlyPrecipIn,Conditions,Clouds,dailyrainin,SoftwareType,DateUTC
2013-05-23 00:14:00,72.7,63.0,29.92,ESE,122,1.0,5.0,72,0.00,,,0.00,weatherlink.com 1.10,2013-05-23 05:14:00,
2013-05-23 00:23:00,72.6,63.0,29.92,SE,141,3.0,5.0,73,0.00,,,0.00,weatherlink.com 1.10,2013-05-23 05:23:00,
2013-05-23 00:38:00,72.6,63.0,29.91,SE,132,2.0,6.0,73,0.00,,,0.00,weatherlink.com 1.10,2013-05-23 05:38:00,
2013-05-23 00:53:00,72.9,64.0,29.91,SE,124,5.0,8.0,73,0.00,,,0.00,weatherlink.com 1.10,2013-05-23 05:53:00,
2013-05-23 01:08:00,73.1,64.0,29.91,SE,132,6.0,9.0,72,0.00,,,0.00,weatherlink.com 1.10,2013-05-23 06:08:00,
2013-05-23 01:23:00,73.0,64.0,29.91,SE,127,5.0,12.0,73,0.00,,,0.00,weatherlink.com 1.10,2013-05-23 06:23:00,
2013-05-23 01:39:00,73.3,65.0,29.89,SE,140,8.0,11.0,74,0.00,,,0.00,weatherlink.com 1.10,2013-05-23 06:39:00,
2013-05-23 01:54:00,73.9,65.0,29.89,SE,137,6.0,11.0,73,0.00,,,0.00,weatherlink.com 1.10,2013-05-23 06:54:00,
2013-05-23 02:09:00,73.7,65.0,29.89,SSE,155,3.0,14.0,74,0.00,,,0.00,weatherlink.com 1.10,2013-05-23 07:09:00,
2013-05-23 02:24:00,73.1,65.0,29.88,SE,139,6.0,7.0,76,0.00,,,0.00,weatherlink.com 1.10,2013-05-23 07:24:00,
2013-05-23 02:39:00,73.0,66.0,29.88,South,169,5.0,11.0,79,0.00,,,0.00,weatherlink.com 1.10,2013-05-23 07:39:00,
2013-05-23 03:09:00,72.6,67.0,29.88,SE,138,3.0,7.0,82,0.00,,,0.00,weatherlink.com 1.10,2013-05-23 08:09:00,
2013-05-23 03:24:00,72.5,67.0,29.88,SE,137,1.0,6.0,83,0.00,,,0.00,weatherlink.com 1.10,2013-05-23 08:24:00,
2013-05-23 03:39:00,72.6,68.0,29.88,SSE,164,3.0,4.0,84,0.00,,,0.00,weatherlink.com 1.10,2013-05-23 08:39:00,
2013-05-23 03:54:00,73.0,69.0,29.88,SSW,197,6.0,14.0,86,0.00,,,0.00,weatherlink.com 1.10,2013-05-23 08:54:00,
2013-05-23 04:09:00,72.8,69.0,29.88,South,184,3.0,10.0,87,0.00,,,0.00,weatherlink.com 1.10,2013-05-23 09:09:00,
2013-05-23 04:24:00,72.5,69.0,29.88,South,177,4.0,8.0,88,0.00,,,0.00,weatherlink.com 1.10,2013-05-23 09:24:00,
2013-05-23 04:39:00,72.3,69.0,29.89,SE,132,3.0,6.0,89,0.00,,,0.00,weatherlink.com 1.10,2013-05-23 09:39:00,
2013-05-23 04:54:00,72.1,69.0,29.89,SE,128,2.0,6.0,89,0.00,,,0.00,weatherlink.com 1.10,2013-05-23 09:54:00,
2013-05-23 05:09:00,72.2,69.0,29.89,SSE,153,1.0,7.0,90,0.00,,,0.00,weatherlink.com 1.10,2013-05-23 10:09:00,
2013-05-23 05:24:00,72.2,69.0,29.90,SSW,210,2.0,6.0,90,0.00,,,0.00,weatherlink.com 1.10,2013-05-23 10:24:00,
2013-05-23 05:39:00,72.3,70.0,29.90,SSE,153,4.0,6.0,91,0.00,,,0.00,weatherlink.com 1.10,2013-05-23 10:39:00,
2013-05-23 05:54:00,72.6,70.0,29.90,South,180,5.0,8.0,92,0.00,,,0.00,weatherlink.com 1.10,2013-05-23 10:54:00,
2013-05-23 06:09:00,72.8,71.0,29.91,SSE,156,6.0,11.0,93,0.00,,,0.00,weatherlink.com 1.10,2013-05-23 11:09:00,
2013-05-23 06:24:00,73.2,71.0,29.91,ESE,110,4.0,8.0,93,0.00,,,0.00,weatherlink.com 1.10,2013-05-23 11:24:00,
2013-05-23 06:39:00,73.5,71.0,29.91,SE,131,4.0,6.0,93,0.00,,,0.00,weatherlink.com 1.10,2013-05-23 11:39:00,
2013-05-23 06:54:00,73.6,71.0,29.91,SSE,155,4.0,8.0,92,0.00,,,0.00,weatherlink.com 1.10,2013-05-23 11:54:00,
2013-05-23 07:09:00,73.6,71.0,29.92,SE,142,2.0,6.0,92,0.00,,,0.00,weatherlink.com 1.10,2013-05-23 12:09:00,
2013-05-23 07:24:00,74.0,71.0,29.92,SE,131,3.0,7.0,91,0.00,,,0.00,weatherlink.com 1.10,2013-05-23 12:24:00,
2013-05-23 07:39:00,74.3,71.0,29.92,SSE,162,7.0,9.0,90,0.00,,,0.00,weatherlink.com 1.10,2013-05-23 12:39:00,
2013-05-23 07:54:00,74.4,71.0,29.93,SSW,195,6.0,11.0,90,0.00,,,0.00,weatherlink.com 1.10,2013-05-23 12:54:00,
2013-05-23 08:09:00,74.8,71.0,29.92,SSW,208,9.0,16.0,88,0.00,,,0.00,weatherlink.com 1.10,2013-05-23 13:09:00,
2013-05-23 08:25:00,74.9,71.0,29.92,South,173,7.0,20.0,87,0.00,,,0.00,weatherlink.com 1.10,2013-05-23 13:25:00,
2013-05-23 08:40:00,76.0,71.0,29.93,South,191,13.0,14.0,84,0.00,,,0.00,weatherlink.com 1.10,2013-05-23 13:40:00,
2013-05-23 08:55:00,77.1,71.0,29.95,SSW,198,7.0,12.0,82,0.00,,,0.00,weatherlink.com 1.10,2013-05-23 13:55:00,
2013-05-23 09:10:00,76.8,71.0,29.97,South,180,6.0,12.0,81,0.00,,,0.00,weatherlink.com 1.10,2013-05-23 14:10:00,
2013-05-23 09:25:00,77.1,71.0,29.98,South,186,8.0,11.0,81,0.00,,,0.00,weatherlink.com 1.10,2013-05-23 14:25:00,
2013-05-23 09:40:00,77.5,71.0,29.98,SSE,148,6.0,8.0,81,0.00,,,0.00,weatherlink.com 1.10,2013-05-23 14:40:00,
2013-05-23 09:55:00,77.9,71.0,29.99,SSE,163,3.0,10.0,79,0.00,,,0.00,weatherlink.com 1.10,2013-05-23 14:55:00,
2013-05-23 10:10:00,78.8,71.0,30.00,SE,131,4.0,7.0,77,0.00,,,0.00,weatherlink.com 1.10,2013-05-23 15:10:00,
2013-05-23 10:25:00,78.8,71.0,30.01,East,88,4.0,8.0,77,0.00,,,0.00,weatherlink.com 1.10,2013-05-23 15:25:00,
2013-05-23 10:40:00,79.2,71.0,30.01,ESE,121,7.0,9.0,77,0.00,,,0.00,weatherlink.com 1.10,2013-05-23 15:40:00,
2013-05-23 10:55:00,80.0,70.0,30.02,ESE,114,11.0,12.0,72,0.00,,,0.00,weatherlink.com 1.10,2013-05-23 15:55:00,
2013-05-23 11:25:00,80.6,70.0,30.05,ESE,113,4.0,9.0,71,0.00,,,0.00,weatherlink.com 1.10,2013-05-23 16:25:00,
2013-05-23 11:40:00,80.1,70.0,30.05,East,101,4.0,6.0,72,0.00,,,0.00,weatherlink.com 1.10,2013-05-23 16:40:00,
2013-05-23 11:55:00,80.8,71.0,30.05,ENE,69,4.0,7.0,71,0.00,,,0.00,weatherlink.com 1.10,2013-05-23 16:55:00,
2013-05-23 12:10:00,81.4,71.0,30.05,East,100,5.0,7.0,70,0.00,,,0.00,weatherlink.com 1.10,2013-05-23 17:10:00,
2013-05-23 12:25:00,82.0,71.0,30.05,SE,141,4.0,8.0,70,0.00,,,0.00,weatherlink.com 1.10,2013-05-23 17:25:00,
2013-05-23 12:40:00,82.9,71.0,30.04,ESE,114,6.0,8.0,68,0.00,,,0.00,weatherlink.com 1.10,2013-05-23 17:40:00,
2013-05-23 12:55:00,82.8,71.0,30.03,ENE,78,6.0,9.0,68,0.00,,,0.00,weatherlink.com 1.10,2013-05-23 17:55:00,
2013-05-23 13:10:00,82.6,71.0,30.03,ESE,115,6.0,11.0,69,0.00,,,0.00,weatherlink.com 1.10,2013-05-23 18:10:00,
2013-05-23 13:25:00,83.4,71.0,30.02,East,97,4.0,7.0,67,0.00,,,0.00,weatherlink.com 1.10,2013-05-23 18:25:00,
2013-05-23 13:40:00,84.0,72.0,30.01,SSE,148,6.0,11.0,67,0.00,,,0.00,weatherlink.com 1.10,2013-05-23 18:40:00,
2013-05-23 13:55:00,83.3,71.0,30.01,ENE,75,6.0,12.0,67,0.00,,,0.00,weatherlink.com 1.10,2013-05-23 18:55:00,
2013-05-23 14:10:00,82.8,72.0,30.00,East,96,6.0,10.0,69,0.00,,,0.00,weatherlink.com 1.10,2013-05-23 19:10:00,
2013-05-23 14:26:00,83.0,72.0,30.00,SE,131,4.0,7.0,70,0.00,,,0.00,weatherlink.com 1.10,2013-05-23 19:26:00,
2013-05-23 14:41:00,83.0,71.0,30.00,SE,129,6.0,13.0,68,0.00,,,0.00,weatherlink.com 1.10,2013-05-23 19:41:00,
2013-05-23 14:56:00,83.6,72.0,29.99,SE,143,9.0,14.0,67,0.00,,,0.00,weatherlink.com 1.10,2013-05-23 19:56:00,
2013-05-23 15:11:00,83.8,72.0,29.99,ESE,121,8.0,10.0,67,0.00,,,0.00,weatherlink.com 1.10,2013-05-23 20:11:00,
2013-05-23 15:26:00,84.5,71.0,29.98,ESE,118,9.0,13.0,64,0.00,,,0.00,weatherlink.com 1.10,2013-05-23 20:26:00,
2013-05-23 15:41:00,84.5,72.0,29.98,SE,131,9.0,14.0,66,0.00,,,0.00,weatherlink.com 1.10,2013-05-23 20:41:00,
2013-05-23 15:56:00,85.0,71.0,29.97,ESE,118,12.0,15.0,63,0.00,,,0.00,weatherlink.com 1.10,2013-05-23 20:56:00,
2013-05-23 16:11:00,85.3,72.0,29.97,SE,132,9.0,14.0,64,0.00,,,0.00,weatherlink.com 1.10,2013-05-23 21:11:00,
2013-05-23 16:26:00,85.1,72.0,29.96,SSE,148,11.0,15.0,64,0.00,,,0.00,weatherlink.com 1.10,2013-05-23 21:26:00,
2013-05-23 16:41:00,85.3,71.0,29.95,ESE,115,12.0,15.0,62,0.00,,,0.00,weatherlink.com 1.10,2013-05-23 21:41:00,
2013-05-23 16:56:00,85.9,71.0,29.95,ESE,114,9.0,13.0,62,0.00,,,0.00,weatherlink.com 1.10,2013-05-23 21:56:00,
2013-05-23 17:11:00,85.0,71.0,29.96,SSE,150,10.0,14.0,63,0.00,,,0.00,weatherlink.com 1.10,2013-05-23 22:11:00,
2013-05-23 17:26:00,84.6,70.0,29.95,East,99,6.0,13.0,62,0.00,,,0.00,weatherlink.com 1.10,2013-05-23 22:26:00,
2013-05-23 17:41:00,84.3,70.0,29.95,SE,124,7.0,11.0,63,0.00,,,0.00,weatherlink.com 1.10,2013-05-23 22:41:00,
2013-05-23 17:56:00,83.9,70.0,29.95,SE,124,7.0,10.0,63,0.00,,,0.00,weatherlink.com 1.10,2013-05-23 22:56:00,
2013-05-23 18:11:00,83.5,70.0,29.95,ESE,115,5.0,11.0,63,0.00,,,0.00,weatherlink.com 1.10,2013-05-23 23:11:00,
2013-05-23 18:26:00,83.4,69.0,29.95,SE,134,5.0,10.0,63,0.00,,,0.00,weatherlink.com 1.10,2013-05-23 23:26:00,
2013-05-23 18:41:00,83.1,69.0,29.95,SE,131,4.0,9.0,63,0.00,,,0.00,weatherlink.com 1.10,2013-05-23 23:41:00,
2013-05-23 18:56:00,83.2,69.0,29.96,ESE,118,6.0,6.0,63,0.00,,,0.00,weatherlink.com 1.10,2013-05-23 23:56:00,
2013-05-23 19:11:00,83.1,69.0,29.97,ESE,114,2.0,5.0,63,0.00,,,0.00,weatherlink.com 1.10,2013-05-24 00:11:00,
2013-05-23 19:26:00,83.0,69.0,29.97,ESE,118,1.0,3.0,63,0.00,,,0.00,weatherlink.com 1.10,2013-05-24 00:26:00,
2013-05-23 19:41:00,82.7,69.0,29.98,East,84,0.0,3.0,64,0.00,,,0.00,weatherlink.com 1.10,2013-05-24 00:41:00,
2013-05-23 19:56:00,82.3,69.0,29.99,SE,127,0.0,1.0,65,0.00,,,0.00,weatherlink.com 1.10,2013-05-24 00:56:00,
2013-05-23 20:11:00,81.9,69.0,29.99,ENE,57,1.0,2.0,66,0.00,,,0.00,weatherlink.com 1.10,2013-05-24 01:11:00,
2013-05-23 20:26:00,81.7,69.0,30.00,NE,44,2.0,3.0,66,0.00,,,0.00,weatherlink.com 1.10,2013-05-24 01:26:00,
2013-05-23 20:41:00,81.5,69.0,30.01,NNE,25,0.0,2.0,66,0.00,,,0.00,weatherlink.com 1.10,2013-05-24 01:41:00,
2013-05-23 20:56:00,81.6,69.0,30.03,NNE,25,0.0,1.0,66,0.00,,,0.00,weatherlink.com 1.10,2013-05-24 01:56:00,
2013-05-23 21:11:00,81.3,69.0,30.03,NNE,25,0.0,1.0,67,0.00,,,0.00,weatherlink.com 1.10,2013-05-24 02:11:00,
2013-05-23 21:26:00,81.2,69.0,30.04,NNE,25,0.0,1.0,67,0.00,,,0.00,weatherlink.com 1.10,2013-05-24 02:26:00,
2013-05-23 21:41:00,81.2,70.0,30.04,NNE,22,0.0,1.0,68,0.00,,,0.00,weatherlink.com 1.10,2013-05-24 02:41:00,
2013-05-23 21:56:00,81.9,70.0,30.04,SW,225,2.0,2.0,67,0.00,,,0.00,weatherlink.com 1.10,2013-05-24 02:56:00,
2013-05-23 22:12:00,81.6,70.0,30.04,SW,235,4.0,4.0,68,0.00,,,0.00,weatherlink.com 1.10,2013-05-24 03:12:00,
2013-05-23 22:26:00,81.3,70.0,30.05,WSW,246,2.0,4.0,68,0.00,,,0.00,weatherlink.com 1.10,2013-05-24 03:26:00,
2013-05-23 22:41:00,81.0,70.0,30.03,SSW,208,2.0,5.0,69,0.00,,,0.00,weatherlink.com 1.10,2013-05-24 03:41:00,
2013-05-23 22:56:00,80.1,70.0,30.01,SSE,153,1.0,4.0,71,0.00,,,0.00,weatherlink.com 1.10,2013-05-24 03:56:00,
2013-05-23 23:11:00,79.4,70.0,30.00,SE,128,6.0,9.0,73,0.00,,,0.00,weatherlink.com 1.10,2013-05-24 04:11:00,
2013-05-23 23:26:00,77.6,71.0,29.98,SE,131,10.0,12.0,79,0.00,,,0.00,weatherlink.com 1.10,2013-05-24 04:26:00,
2013-05-23 23:41:00,77.7,70.0,29.97,SSE,148,6.0,13.0,77,0.00,,,0.00,weatherlink.com 1.10,2013-05-24 04:41:00,
2013-05-23 23:56:00,79.2,69.0,29.99,East,86,2.0,9.0,72,0.00,,,0.00,weatherlink.com 1.10,2013-05-24 04:56:00,